createdAt,value
2019-03-15T00:02:15.524Z,99973.81
2019-03-15T00:05:06.098Z,99971.37
2019-03-15T00:07:56.347Z,99964.89
2019-03-15T00:10:46.416Z,99967.88
2019-03-15T00:13:36.354Z,99966.50
2019-03-15T00:16:26.620Z,99969.16
2019-03-15T00:19:16.815Z,99961.83
2019-03-15T00:22:08.631Z,99963.20
2019-03-15T00:25:00.201Z,99959.16
2019-03-15T00:27:50.382Z,99966.09
2019-03-15T00:30:40.502Z,99964.61
2019-03-15T00:33:30.550Z,99963.09
2019-03-15T00:36:20.789Z,99963.55
2019-03-15T00:39:11.439Z,99962.86
2019-03-15T00:42:01.453Z,99966.34
2019-03-15T00:44:51.727Z,99970.85
2019-03-15T00:47:41.877Z,99974.20
2019-03-15T00:50:31.973Z,99971.96
2019-03-15T00:53:22.278Z,99959.91
2019-03-15T00:56:12.750Z,99957.00
2019-03-15T00:59:02.734Z,99960.49
2019-03-15T01:01:52.703Z,99957.91
2019-03-15T01:04:42.953Z,99959.04
2019-03-15T01:07:33.341Z,99955.72
2019-03-15T01:10:23.600Z,99953.84
2019-03-15T01:13:13.621Z,99954.86
2019-03-15T01:16:04.167Z,99952.83
2019-03-15T01:18:54.190Z,99957.09
2019-03-15T01:21:44.679Z,99950.75
2019-03-15T01:24:34.819Z,99953.17
2019-03-15T01:27:25.098Z,99960.06
2019-03-15T01:30:15.092Z,99959.04
2019-03-15T01:33:05.197Z,99956.27
2019-03-15T01:35:55.486Z,99960.34
2019-03-15T01:38:45.398Z,99965.25
2019-03-15T01:41:38.214Z,99958.83
2019-03-15T01:44:28.539Z,99952.52
2019-03-15T01:47:19.045Z,99957.09
2019-03-15T01:50:09.605Z,99963.98
2019-03-15T01:53:02.348Z,99957.97
2019-03-15T01:55:52.685Z,99953.57
2019-03-15T01:58:43.157Z,99955.98
2019-03-15T02:01:33.571Z,99956.73
2019-03-15T02:04:24.169Z,99949.69
2019-03-15T02:07:14.309Z,99957.68
2019-03-15T02:10:04.864Z,99958.95
2019-03-15T02:12:54.884Z,99956.44
2019-03-15T02:15:45.458Z,99951.12
2019-03-15T02:18:36.455Z,99953.55
2019-03-15T02:21:26.763Z,99957.66
2019-03-15T02:24:17.077Z,99955.70
2019-03-15T02:27:07.275Z,99954.53
2019-03-15T02:29:57.743Z,99957.78
2019-03-15T02:32:48.169Z,99955.30
2019-03-15T02:35:38.066Z,99954.88
2019-03-15T02:38:28.426Z,99956.69
2019-03-15T02:41:18.647Z,99955.75
2019-03-15T02:44:08.915Z,99958.95
2019-03-15T02:46:59.437Z,99947.55
2019-03-15T02:49:49.703Z,99951.86
2019-03-15T02:52:39.959Z,99941.80
2019-03-15T02:55:30.550Z,99940.34
2019-03-15T02:58:21.061Z,99936.23
2019-03-15T03:01:11.436Z,99933.41
2019-03-15T03:04:01.440Z,99934.48
2019-03-15T03:06:51.755Z,99939.31
2019-03-15T03:09:42.120Z,99943.38
2019-03-15T03:12:32.396Z,99936.88
2019-03-15T03:15:25.403Z,99946.35
2019-03-15T03:18:15.699Z,99948.66
2019-03-15T03:21:05.877Z,99951.38
2019-03-15T03:23:57.328Z,99954.52
2019-03-15T03:26:47.739Z,99957.30
2019-03-15T03:29:40.873Z,99964.94
2019-03-15T03:32:32.331Z,99966.62
2019-03-15T03:35:22.580Z,99965.88
2019-03-15T03:38:13.216Z,99967.69
2019-03-15T03:41:03.550Z,99971.80
2019-03-15T03:43:53.958Z,99971.75
2019-03-15T03:46:44.018Z,99970.30
2019-03-15T03:49:35.052Z,99967.69
2019-03-15T03:52:25.611Z,99961.02
2019-03-15T03:55:15.901Z,99973.37
2019-03-15T03:58:07.106Z,99975.91
2019-03-15T04:00:57.380Z,99970.03
2019-03-15T04:03:47.784Z,99970.27
2019-03-15T04:06:38.123Z,99967.88
2019-03-15T04:09:28.358Z,99965.67
2019-03-15T04:12:18.779Z,99972.22
2019-03-15T04:15:10.503Z,99975.16
2019-03-15T04:18:00.855Z,99972.85
2019-03-15T04:20:50.840Z,99970.07
2019-03-15T04:23:41.387Z,99971.17
2019-03-15T04:26:31.704Z,99962.38
2019-03-15T04:29:21.911Z,99977.32
2019-03-15T04:32:12.151Z,99966.73
2019-03-15T04:35:02.519Z,99979.36
2019-03-15T04:37:52.704Z,99980.05
2019-03-15T04:40:42.968Z,99981.84
2019-03-15T04:43:33.539Z,99985.05
2019-03-15T04:46:23.924Z,99980.70
2019-03-15T04:49:14.086Z,99983.52
2019-03-15T04:52:04.380Z,99957.14
2019-03-15T04:54:54.724Z,99982.27
2019-03-15T04:57:44.999Z,99982.27
2019-03-15T05:00:35.493Z,99979.53
2019-03-15T05:03:25.799Z,99983.06
2019-03-15T05:06:16.125Z,99985.66
2019-03-15T05:09:07.268Z,99979.59
2019-03-15T05:11:57.543Z,99984.17
2019-03-15T05:14:47.679Z,99985.14
2019-03-15T05:17:38.250Z,99977.90
2019-03-15T05:20:28.295Z,99981.97
2019-03-15T05:23:18.324Z,99979.53
2019-03-15T05:26:08.610Z,99976.77
2019-03-15T05:28:58.578Z,99980.86
2019-03-15T05:31:48.791Z,99975.00
2019-03-15T05:34:39.144Z,99970.96
2019-03-15T05:37:29.416Z,99976.56
2019-03-15T05:40:19.675Z,99975.36
2019-03-15T05:43:10.104Z,99985.20
2019-03-15T05:46:00.451Z,99999.61
2019-03-15T05:48:50.739Z,99993.59
2019-03-15T05:51:40.800Z,99997.51
2019-03-15T05:54:31.006Z,99996.17
2019-03-15T05:57:21.308Z,100000.76
2019-03-15T06:00:12.623Z,99999.94
2019-03-15T06:03:04.098Z,100005.70
2019-03-15T06:05:54.722Z,100005.70
2019-03-15T06:08:45.081Z,100010.27
2019-03-15T06:11:35.363Z,100013.44
2019-03-15T06:14:25.765Z,100019.01
2019-03-15T06:17:18.536Z,100019.25
2019-03-15T06:20:09.393Z,100025.45
2019-03-15T06:23:00.959Z,100035.38
2019-03-15T06:25:51.543Z,100038.19
2019-03-15T06:28:41.870Z,100035.45
2019-03-15T06:31:32.142Z,100043.76
2019-03-15T06:34:22.451Z,100051.29
2019-03-15T06:37:12.899Z,100048.73
2019-03-15T06:40:03.145Z,100055.17
2019-03-15T06:42:56.006Z,100052.47
2019-03-15T06:45:46.054Z,100056.86
2019-03-15T06:48:36.674Z,100059.05
2019-03-15T06:51:26.839Z,100056.63
2019-03-15T06:54:17.305Z,100060.06
2019-03-15T06:57:07.657Z,100064.54
2019-03-15T06:59:59.556Z,100066.59
2019-03-15T07:02:49.951Z,100067.95
2019-03-15T07:05:41.321Z,100068.06
2019-03-15T07:08:31.357Z,100071.33
2019-03-15T07:11:21.488Z,100072.96
2019-03-15T07:14:11.461Z,100071.27
2019-03-15T07:17:02.140Z,100079.47
2019-03-15T07:19:52.181Z,100079.45
2019-03-15T07:22:42.538Z,100084.25
2019-03-15T07:25:32.848Z,100086.88
2019-03-15T07:28:23.732Z,100093.42
2019-03-15T07:31:14.167Z,100093.27
2019-03-15T07:34:04.810Z,100095.45
2019-03-15T07:36:55.512Z,100099.84
2019-03-15T07:39:46.872Z,100101.63
2019-03-15T07:42:37.254Z,100106.08
2019-03-15T07:45:28.982Z,100106.81
2019-03-15T07:48:22.782Z,100103.33
2019-03-15T07:51:10.969Z,100106.73
2019-03-15T07:54:01.178Z,100109.84
2019-03-15T07:56:51.463Z,100106.52
2019-03-15T07:59:42.872Z,100113.27
2019-03-15T08:02:33.078Z,100116.20
2019-03-15T08:05:23.360Z,100114.14
2019-03-15T08:08:14.031Z,100126.66
2019-03-15T08:11:04.210Z,100131.36
2019-03-15T08:13:54.645Z,100133.76
2019-03-15T08:16:44.849Z,100131.55
2019-03-15T08:19:35.103Z,100138.13
2019-03-15T08:22:25.413Z,100132.41
2019-03-15T08:25:15.645Z,100139.72
2019-03-15T08:28:05.765Z,100135.81
2019-03-15T08:30:56.087Z,100144.88
2019-03-15T08:33:46.097Z,100147.82
2019-03-15T08:36:36.912Z,100146.07
2019-03-15T08:39:27.300Z,100140.08
2019-03-15T08:42:17.359Z,100147.44
2019-03-15T08:45:09.846Z,100144.21
2019-03-15T08:48:00.026Z,100144.01
2019-03-15T08:50:50.229Z,100149.32
2019-03-15T08:53:43.503Z,100142.32
2019-03-15T08:56:33.765Z,100145.52
2019-03-15T08:59:24.076Z,100152.40
2019-03-15T09:02:14.728Z,100156.70
2019-03-15T09:05:05.571Z,100151.99
2019-03-15T09:07:55.543Z,100150.59
2019-03-15T09:10:46.054Z,100152.21
2019-03-15T09:13:36.379Z,100158.59
2019-03-15T09:16:26.951Z,100152.60
2019-03-15T09:19:17.351Z,100149.16
2019-03-15T09:22:07.769Z,100152.39
2019-03-15T09:24:58.080Z,100151.95
2019-03-15T09:27:48.692Z,100152.03
2019-03-15T09:30:38.973Z,100148.69
2019-03-15T09:33:28.966Z,100147.42
2019-03-15T09:36:19.226Z,100153.69
2019-03-15T09:39:10.436Z,100152.63
2019-03-15T09:42:03.390Z,100150.84
2019-03-15T09:44:53.502Z,100155.41
2019-03-15T09:47:43.829Z,100153.50
2019-03-15T09:50:50.067Z,100155.11
2019-03-15T09:53:26.660Z,100155.21
2019-03-15T09:56:17.078Z,100154.38
2019-03-15T09:59:07.669Z,100152.14
2019-03-15T10:01:58.298Z,100150.80
2019-03-15T10:04:48.325Z,100152.28
2019-03-15T10:07:42.764Z,100150.89
2019-03-15T10:10:30.531Z,100145.97
2019-03-15T10:13:20.606Z,100144.97
2019-03-15T10:16:10.853Z,100143.12
2019-03-15T10:19:01.203Z,100145.12
2019-03-15T10:21:51.512Z,100149.42
2019-03-15T10:24:42.420Z,100137.92
2019-03-15T10:27:32.925Z,100142.80
2019-03-15T10:30:23.666Z,100139.48
2019-03-15T10:33:13.769Z,100141.65
2019-03-15T10:36:03.923Z,100140.47
2019-03-15T10:38:54.303Z,100136.16
2019-03-15T10:41:44.492Z,100130.86
2019-03-15T10:44:34.500Z,100133.95
2019-03-15T10:47:24.874Z,100131.39
2019-03-15T10:50:15.096Z,100133.63
2019-03-15T10:53:05.298Z,100130.57
2019-03-15T10:56:00.537Z,100129.50
2019-03-15T10:58:47.505Z,100133.56
2019-03-15T11:01:40.580Z,100122.92
2019-03-15T11:04:30.875Z,100127.50
2019-03-15T11:07:20.892Z,100128.99
2019-03-15T11:10:11.212Z,100126.72
2019-03-15T11:13:01.841Z,100119.79
2019-03-15T11:15:52.327Z,100112.89
2019-03-15T11:18:42.526Z,100122.81
2019-03-15T11:21:32.558Z,100117.22
2019-03-15T11:24:22.783Z,100109.20
2019-03-15T11:27:13.167Z,100115.61
2019-03-15T11:30:03.390Z,100109.50
2019-03-15T11:32:56.584Z,100105.14
2019-03-15T11:35:47.096Z,100105.30
2019-03-15T11:38:37.358Z,100104.94
2019-03-15T11:41:27.734Z,100095.81
2019-03-15T11:44:17.789Z,100090.22
2019-03-15T11:47:08.098Z,100092.05
2019-03-15T11:49:58.851Z,100087.47
2019-03-15T11:52:48.830Z,100093.12
2019-03-15T11:55:39.654Z,100078.15
2019-03-15T11:58:29.905Z,100075.26
2019-03-15T12:01:20.049Z,100084.39
2019-03-15T12:04:10.223Z,100081.36
2019-03-15T12:07:00.851Z,100080.92
2019-03-15T12:09:51.337Z,100078.63
2019-03-15T12:12:41.999Z,100079.70
2019-03-15T12:15:32.169Z,100080.48
2019-03-15T12:18:22.157Z,100082.70
2019-03-15T12:21:12.546Z,100083.45
2019-03-15T12:24:02.809Z,100085.67
2019-03-15T12:26:53.053Z,100088.92
2019-03-15T12:29:43.130Z,100084.31
2019-03-15T12:32:37.842Z,100087.34
2019-03-15T12:35:29.590Z,100096.56
2019-03-15T12:38:19.564Z,100087.45
2019-03-15T12:41:09.807Z,100089.02
2019-03-15T12:44:00.194Z,100090.44
2019-03-15T12:46:50.899Z,100091.60
2019-03-15T12:49:41.247Z,100097.84
2019-03-15T12:52:45.901Z,100101.51
2019-03-15T12:55:24.901Z,100100.52
2019-03-15T12:58:15.437Z,100101.05
2019-03-15T13:01:05.617Z,100110.25
2019-03-15T13:03:55.899Z,100113.25
2019-03-15T13:06:46.082Z,100110.25
2019-03-15T13:09:36.526Z,100108.97
2019-03-15T13:12:26.829Z,100119.57
2019-03-15T13:15:17.047Z,100114.83
2019-03-15T13:18:07.374Z,100109.51
2019-03-15T13:20:58.123Z,100104.22
2019-03-15T13:23:49.756Z,100105.34
2019-03-15T13:26:40.298Z,100105.10
2019-03-15T13:29:30.589Z,100110.47
2019-03-15T13:32:20.856Z,100112.28
2019-03-15T13:35:11.306Z,100112.67
2019-03-15T13:38:04.453Z,100112.13
2019-03-15T13:40:54.586Z,100114.33
2019-03-15T13:43:44.655Z,100116.53
2019-03-15T13:46:34.891Z,100112.06
2019-03-15T13:49:25.224Z,100117.85
2019-03-15T13:52:15.541Z,100115.45
2019-03-15T13:55:07.123Z,100117.47
2019-03-15T13:57:57.538Z,100116.44
2019-03-15T14:00:47.968Z,100116.61
2019-03-15T14:03:38.372Z,100115.45
2019-03-15T14:06:28.515Z,100112.69
2019-03-15T14:09:18.603Z,100112.14
2019-03-15T14:12:08.763Z,100108.92
2019-03-15T14:14:59.253Z,100111.41
2019-03-15T14:17:49.605Z,100111.22
2019-03-15T14:20:39.892Z,100107.54
2019-03-15T14:23:30.236Z,100110.13
2019-03-15T14:26:20.495Z,100103.77
2019-03-15T14:29:11.369Z,100109.37
2019-03-15T14:32:01.765Z,100115.06
2019-03-15T14:34:52.081Z,100105.72
2019-03-15T14:37:42.246Z,100105.98
2019-03-15T14:40:32.867Z,100101.40
2019-03-15T14:43:23.032Z,100092.95
2019-03-15T14:46:13.134Z,100097.81
2019-03-15T14:49:03.412Z,100100.17
2019-03-15T14:51:53.570Z,100101.52
2019-03-15T14:54:43.922Z,100093.84
2019-03-15T14:57:34.652Z,100095.61
2019-03-15T15:00:25.082Z,100096.02
2019-03-15T15:03:15.413Z,100093.69
2019-03-15T15:06:05.626Z,100092.66
2019-03-15T15:08:55.843Z,100095.30
2019-03-15T15:11:45.854Z,100103.86
2019-03-15T15:14:36.528Z,100103.72
2019-03-15T15:17:26.830Z,100111.48
2019-03-15T15:20:16.989Z,100112.76
2019-03-15T15:23:07.290Z,100121.07
2019-03-15T15:25:57.507Z,100118.87
2019-03-15T15:28:47.820Z,100117.27
2019-03-15T15:31:38.125Z,100114.11
2019-03-15T15:34:28.279Z,100119.17
2019-03-15T15:37:18.404Z,100120.98
2019-03-15T15:40:09.722Z,100105.07
2019-03-15T15:42:59.944Z,100132.11
2019-03-15T15:45:50.273Z,100130.16
2019-03-15T15:48:40.393Z,100138.55
2019-03-15T15:51:30.764Z,100135.55
2019-03-15T15:54:21.482Z,100146.74
2019-03-15T15:57:12.870Z,100146.66
2019-03-15T16:00:04.257Z,100153.67
2019-03-15T16:02:54.663Z,100153.82
2019-03-15T16:05:45.237Z,100152.83
2019-03-15T16:08:35.127Z,100159.33
2019-03-15T16:11:25.461Z,100158.23
2019-03-15T16:14:15.658Z,100165.95
2019-03-15T16:17:05.666Z,100166.59
2019-03-15T16:19:55.657Z,100166.38
2019-03-15T16:22:46.227Z,100166.86
2019-03-15T16:25:36.570Z,100173.11
2019-03-15T16:28:31.725Z,100179.16
2019-03-15T16:31:19.176Z,100186.13
2019-03-15T16:34:09.423Z,100184.05
2019-03-15T16:36:59.653Z,100195.48
2019-03-15T16:39:49.739Z,100194.36
2019-03-15T16:42:40.073Z,100201.55
2019-03-15T16:45:30.370Z,100196.81
2019-03-15T16:48:20.646Z,100202.50
2019-03-15T16:51:19.499Z,100202.50
2019-03-15T16:54:02.890Z,100212.11
2019-03-15T16:56:53.247Z,100211.98
2019-03-15T16:59:43.569Z,100205.03
2019-03-15T17:02:34.511Z,100209.64
2019-03-15T17:05:24.557Z,100216.09
2019-03-15T17:08:14.610Z,100218.91
2019-03-15T17:11:04.830Z,100224.51
2019-03-15T17:13:54.906Z,100216.95
2019-03-15T17:16:45.126Z,100221.18
2019-03-15T17:19:35.338Z,100220.72
2019-03-15T17:22:25.693Z,100221.53
2019-03-15T17:25:15.970Z,100230.29
2019-03-15T17:28:06.336Z,100229.96
2019-03-15T17:31:09.137Z,100238.58
2019-03-15T17:33:48.930Z,100245.38
2019-03-15T17:36:39.447Z,100243.20
2019-03-15T17:39:30.713Z,100238.58
2019-03-15T17:42:21.169Z,100249.12
2019-03-15T17:45:11.620Z,100251.34
2019-03-15T17:48:02.350Z,100254.47
2019-03-15T17:50:52.310Z,100255.35
2019-03-15T17:53:42.619Z,100256.69
2019-03-15T17:56:33.152Z,100261.39
2019-03-15T17:59:23.425Z,100267.23
2019-03-15T18:02:13.503Z,100267.14
2019-03-15T18:05:04.508Z,100271.75
2019-03-15T18:07:55.405Z,100279.91
2019-03-15T18:10:45.654Z,100284.54
2019-03-15T18:13:36.104Z,100289.86
2019-03-15T18:16:26.693Z,100296.41
2019-03-15T18:19:16.731Z,100306.35
2019-03-15T18:22:07.302Z,100317.72
2019-03-15T18:24:57.220Z,100318.30
2019-03-15T18:27:47.313Z,100331.52
2019-03-15T18:30:37.911Z,100330.72
2019-03-15T18:33:30.780Z,100325.22
2019-03-15T18:36:21.065Z,100329.97
2019-03-15T18:39:11.466Z,100332.48
2019-03-15T18:42:01.934Z,100341.09
2019-03-15T18:44:52.458Z,100350.52
2019-03-15T18:47:42.629Z,100347.84
2019-03-15T18:50:32.845Z,100350.04
2019-03-15T18:53:23.202Z,100353.45
2019-03-15T18:56:13.353Z,100354.99
2019-03-15T18:59:03.744Z,100363.63
2019-03-15T19:01:53.960Z,100364.33
2019-03-15T19:04:44.162Z,100366.43
2019-03-15T19:07:34.844Z,100371.43
2019-03-15T19:10:25.020Z,100373.35
2019-03-15T19:13:15.650Z,100371.00
2019-03-15T19:16:19.331Z,100373.52
2019-03-15T19:18:57.685Z,100381.30
2019-03-15T19:21:47.937Z,100374.49
2019-03-15T19:24:38.476Z,100380.94
2019-03-15T19:27:28.432Z,100387.23
2019-03-15T19:30:18.517Z,100394.45
2019-03-15T19:33:08.713Z,100388.77
2019-03-15T19:35:58.908Z,100394.88
2019-03-15T19:38:49.042Z,100394.88
2019-03-15T19:41:39.637Z,100402.55
2019-03-15T19:44:29.968Z,100405.56
2019-03-15T19:47:20.018Z,100405.92
2019-03-15T19:50:12.389Z,100413.41
2019-03-15T19:53:02.489Z,100419.61
2019-03-15T19:55:52.788Z,100418.75
2019-03-15T19:58:42.987Z,100424.09
2019-03-15T20:01:34.220Z,100431.16
2019-03-15T20:04:24.740Z,100432.79
2019-03-15T20:07:14.798Z,100428.42
2019-03-15T20:10:05.089Z,100432.95
2019-03-15T20:12:56.688Z,100430.17
2019-03-15T20:15:47.199Z,100426.76
2019-03-15T20:18:37.652Z,100426.92
2019-03-15T20:21:27.852Z,100435.16
2019-03-15T20:24:18.153Z,100434.64
2019-03-15T20:27:08.545Z,100440.61
2019-03-15T20:29:58.980Z,100433.66
2019-03-15T20:32:49.385Z,100433.66
2019-03-15T20:35:39.632Z,100437.66
2019-03-15T20:38:29.668Z,100432.31
2019-03-15T20:41:19.946Z,100437.88
2019-03-15T20:44:11.452Z,100440.73
2019-03-15T20:47:03.693Z,100438.94
2019-03-15T20:49:54.261Z,100445.67
2019-03-15T20:52:44.657Z,100441.50
2019-03-15T20:55:35.136Z,100446.95
2019-03-15T20:58:25.268Z,100449.95
2019-03-15T21:01:15.433Z,100455.60
2019-03-15T21:04:05.831Z,100458.33
2019-03-15T21:06:58.880Z,100454.33
2019-03-15T21:09:49.231Z,100465.62
2019-03-15T21:12:40.495Z,100465.11
2019-03-15T21:15:30.737Z,100466.31
2019-03-15T21:18:20.770Z,100464.11
2019-03-15T21:21:11.046Z,100464.70
2019-03-15T21:24:01.478Z,100465.50
2019-03-15T21:26:51.820Z,100470.03
2019-03-15T21:29:42.166Z,100468.75
2019-03-15T21:32:32.393Z,100466.94
2019-03-15T21:35:22.640Z,100468.97
2019-03-15T21:38:12.708Z,100468.07
2019-03-15T21:41:02.787Z,100456.06
2019-03-15T21:43:53.073Z,100459.09
2019-03-15T21:46:43.484Z,100465.74
2019-03-15T21:49:36.376Z,100469.27
2019-03-15T21:52:28.185Z,100473.64
2019-03-15T21:55:18.271Z,100470.43
2019-03-15T21:58:08.642Z,100470.61
2019-03-15T22:01:02.731Z,100466.25
2019-03-15T22:03:50.833Z,100470.61
2019-03-15T22:06:41.199Z,100469.16
2019-03-15T22:09:31.567Z,100466.03
2019-03-15T22:12:21.616Z,100466.78
2019-03-15T22:15:11.651Z,100463.67
2019-03-15T22:18:01.927Z,100464.21
2019-03-15T22:20:52.149Z,100459.95
2019-03-15T22:23:42.410Z,100462.45
2019-03-15T22:26:33.184Z,100469.72
2019-03-15T22:29:23.508Z,100464.22
2019-03-15T22:32:13.765Z,100467.48
2019-03-15T22:35:04.194Z,100474.45
2019-03-15T22:37:54.233Z,100473.09
2019-03-15T22:40:44.685Z,100476.02
2019-03-15T22:43:35.073Z,100480.94
2019-03-15T22:46:26.421Z,100478.80
2019-03-15T22:49:16.475Z,100482.80
2019-03-15T22:52:07.096Z,100478.74
2019-03-15T22:54:57.396Z,100484.78
2019-03-15T22:57:59.261Z,100488.31
2019-03-15T23:00:39.672Z,100493.48
2019-03-15T23:03:34.393Z,100498.23
2019-03-15T23:06:24.854Z,100493.26
2019-03-15T23:09:15.218Z,100497.80
2019-03-15T23:12:06.701Z,100486.59
2019-03-15T23:14:57.184Z,100489.30
2019-03-15T23:17:47.711Z,100489.99
2019-03-15T23:20:37.980Z,100494.21
2019-03-15T23:23:28.233Z,100492.81
2019-03-15T23:26:18.836Z,100499.19
2019-03-15T23:29:09.284Z,100496.02
2019-03-15T23:31:59.838Z,100502.69
2019-03-15T23:34:49.837Z,100508.14
2019-03-15T23:37:40.120Z,100507.95
2019-03-15T23:40:30.199Z,100522.89
2019-03-15T23:43:20.677Z,100521.84
2019-03-15T23:46:11.195Z,100518.92
2019-03-15T23:49:01.536Z,100521.05
2019-03-15T23:51:51.806Z,100523.47
2019-03-15T23:54:42.108Z,100530.25
2019-03-15T23:57:32.530Z,100528.41
